Time;durP1;ratioP1;P1;durP2;ratioP2;P2;SDS_P1;SDS_P2;PMS_P1;PMS_P2;Temp;Humidity;BMP_temperature;BMP_pressure;BME280_temperature;BME280_humidity;BME280_pressure;Samples;Min_cycle;Max_cycle;Signal;HPM_P1;HPM_P2
2023/03/17 00:00:48;;;;;;;11.50;4.75;;;7.90;99.90;;;;;;5012683;28;20042;-62
2023/03/17 00:03:26;;;;;;;10.02;5.53;;;8.00;99.90;;;;;;5012071;28;20073;-61
2023/03/17 00:05:53;;;;;;;8.07;4.32;;;8.00;99.90;;;;;;4995316;28;20041;-62
2023/03/17 00:08:27;;;;;;;6.78;4.28;;;7.90;99.90;;;;;;5011690;28;20081;-62
2023/03/17 00:10:54;;;;;;;9.38;5.05;;;8.00;99.90;;;;;;4995470;28;20041;-62
2023/03/17 00:13:20;;;;;;;7.50;4.22;;;8.00;99.90;;;;;;5013567;28;20072;-62
2023/03/17 00:15:51;;;;;;;8.93;4.07;;;8.00;99.90;;;;;;5031688;28;20167;-62
2023/03/17 00:18:18;;;;;;;7.10;4.25;;;8.00;99.90;;;;;;5014279;28;20453;-62
2023/03/17 00:20:45;;;;;;;10.13;4.60;;;8.00;99.90;;;;;;5014637;28;20048;-62
2023/03/17 00:23:18;;;;;;;7.72;4.38;;;8.00;99.90;;;;;;5013260;28;20033;-62
2023/03/17 00:25:45;;;;;;;8.20;4.93;;;8.00;99.90;;;;;;5014627;28;20042;-62
2023/03/17 00:28:25;;;;;;;7.68;3.85;;;8.00;99.90;;;;;;4997645;28;20414;-62
2023/03/17 00:30:57;;;;;;;7.20;4.65;;;8.00;99.90;;;;;;4997416;28;20029;-62
2023/03/17 00:33:26;;;;;;;9.30;4.72;;;8.00;99.90;;;;;;5031400;28;20037;-63
2023/03/17 00:35:53;;;;;;;6.78;3.67;;;7.90;99.90;;;;;;5014633;28;20069;-62
2023/03/17 00:38:20;;;;;;;8.10;4.55;;;7.90;99.90;;;;;;5016282;28;20505;-62
2023/03/17 00:40:47;;;;;;;9.30;4.53;;;7.90;99.90;;;;;;5034379;28;20091;-62
2023/03/17 00:43:14;;;;;;;10.35;4.55;;;7.90;99.90;;;;;;5032615;28;20521;-62
2023/03/17 00:45:40;;;;;;;10.68;5.03;;;7.90;99.90;;;;;;5034364;28;20056;-62
2023/03/17 00:48:15;;;;;;;7.90;4.53;;;7.90;99.90;;;;;;5017027;28;20048;-62
2023/03/17 00:50:41;;;;;;;7.03;3.97;;;7.90;99.90;;;;;;5033495;28;20037;-62
2023/03/17 00:53:16;;;;;;;5.40;3.42;;;7.90;99.90;;;;;;5017213;28;20359;-62
2023/03/17 00:55:44;;;;;;;6.35;3.65;;;7.90;99.90;;;;;;5017237;28;20040;-62
2023/03/17 00:58:18;;;;;;;6.97;4.65;;;7.90;99.90;;;;;;5050782;28;20440;-62
2023/03/17 01:00:44;;;;;;;6.47;3.70;;;7.90;99.90;;;;;;5035457;28;20044;-62
2023/03/17 01:03:11;;;;;;;8.40;4.18;;;7.90;99.90;;;;;;5037464;28;20113;-62
2023/03/17 01:05:38;;;;;;;8.65;3.63;;;7.90;99.90;;;;;;5055157;28;20045;-62
2023/03/17 01:08:04;;;;;;;8.43;3.83;;;7.90;99.90;;;;;;5055461;28;20055;-62
2023/03/17 01:10:31;;;;;;;6.63;4.05;;;7.90;99.90;;;;;;5037891;28;20041;-62
2023/03/17 01:12:58;;;;;;;7.10;4.10;;;7.90;99.90;;;;;;5055119;28;20390;-62
2023/03/17 01:15:27;;;;;;;8.18;3.88;;;7.90;99.90;;;;;;5037505;28;20119;-62
2023/03/17 01:17:54;;;;;;;10.93;3.70;;;7.90;99.90;;;;;;5021361;28;20393;-62
2023/03/17 01:20:26;;;;;;;10.45;4.40;;;7.90;99.90;;;;;;5019721;28;20079;-62
2023/03/17 01:22:52;;;;;;;5.78;3.25;;;8.00;99.90;;;;;;5055449;28;20094;-62
2023/03/17 01:25:18;;;;;;;6.72;3.88;;;8.00;99.90;;;;;;5036027;28;20076;-62
2023/03/17 01:27:46;;;;;;;8.57;3.88;;;8.00;99.90;;;;;;5055409;28;20482;-62
2023/03/17 01:30:27;;;;;;;6.35;3.47;;;8.00;99.90;;;;;;5054859;28;20045;-62
2023/03/17 01:32:54;;;;;;;6.80;3.22;;;8.10;99.90;;;;;;5032924;28;20042;-62
2023/03/17 01:35:21;;;;;;;5.88;3.13;;;8.10;99.90;;;;;;5017067;28;20548;-62
2023/03/17 01:37:48;;;;;;;6.18;3.70;;;8.10;99.90;;;;;;5017689;28;20049;-62
2023/03/17 01:40:18;;;;;;;7.97;3.35;;;8.10;99.90;;;;;;5033720;28;20061;-62
2023/03/17 01:42:59;;;;;;;6.28;3.53;;;8.10;99.90;;;;;;5017604;28;20081;-62
2023/03/17 01:46:02;;;;;;;7.22;4.18;;;8.10;99.90;;;;;;5034539;28;20052;-62
2023/03/17 01:48:30;;;;;;;6.13;3.22;;;8.10;99.90;;;;;;5016238;28;20482;-62
2023/03/17 01:50:57;;;;;;;7.10;3.55;;;8.10;99.90;;;;;;5001087;28;20041;-62
2023/03/17 01:53:24;;;;;;;6.63;3.47;;;8.00;99.90;;;;;;5033991;28;20437;-62
2023/03/17 01:55:51;;;;;;;8.27;4.00;;;8.10;99.90;;;;;;5017433;28;20399;-61
2023/03/17 01:58:21;;;;;;;9.00;4.07;;;8.10;99.90;;;;;;5016442;28;20033;-62
2023/03/17 02:00:47;;;;;;;6.35;3.45;;;8.10;99.90;;;;;;5034344;28;20038;-62
2023/03/17 02:03:13;;;;;;;9.05;3.90;;;8.00;99.90;;;;;;5034437;28;20495;-62
2023/03/17 02:05:39;;;;;;;6.13;3.13;;;8.10;99.90;;;;;;5017317;28;20037;-62
2023/03/17 02:08:11;;;;;;;6.35;3.30;;;8.10;99.90;;;;;;5015654;28;20033;-62
2023/03/17 02:10:37;;;;;;;6.57;3.50;;;8.00;99.90;;;;;;5038067;28;20037;-62
2023/03/17 02:13:04;;;;;;;7.15;3.58;;;8.00;99.90;;;;;;5052281;28;20074;-62
2023/03/17 02:15:42;;;;;;;6.00;3.42;;;8.10;99.90;;;;;;5053501;28;20045;-62
2023/03/17 02:18:11;;;;;;;6.22;3.45;;;8.00;99.90;;;;;;5036132;28;20040;-62
2023/03/17 02:20:37;;;;;;;7.18;3.35;;;8.00;99.90;;;;;;5019871;28;20045;-62
2023/03/17 02:23:04;;;;;;;6.53;2.95;;;8.10;99.90;;;;;;5035295;28;20484;-62
2023/03/17 02:25:34;;;;;;;7.28;3.78;;;8.10;99.90;;;;;;5036746;28;20041;-62
2023/03/17 02:28:28;;;;;;;7.00;3.53;;;8.10;99.90;;;;;;5036470;28;20072;-62
2023/03/17 02:30:54;;;;;;;7.20;4.45;;;8.10;99.90;;;;;;5032708;28;20049;-62
2023/03/17 02:33:20;;;;;;;6.78;3.45;;;8.00;99.90;;;;;;5035751;28;20048;-62
2023/03/17 02:35:46;;;;;;;5.28;3.28;;;8.00;99.90;;;;;;5035010;28;20040;-62
2023/03/17 02:38:12;;;;;;;8.35;3.30;;;8.00;99.90;;;;;;5035478;28;20045;-62
2023/03/17 02:40:37;;;;;;;7.03;3.30;;;8.00;99.90;;;;;;5036194;28;20063;-62
2023/03/17 02:43:04;;;;;;;5.63;2.83;;;8.00;99.90;;;;;;5018580;28;20041;-62
2023/03/17 02:45:30;;;;;;;6.53;3.33;;;8.00;99.90;;;;;;5035895;28;20179;-62
2023/03/17 02:47:57;;;;;;;5.90;3.25;;;8.00;99.90;;;;;;5036149;28;20505;-62
2023/03/17 02:50:26;;;;;;;7.35;3.67;;;8.00;99.90;;;;;;5018298;28;20049;-62
2023/03/17 02:52:52;;;;;;;10.95;3.65;;;8.00;99.90;;;;;;5036320;28;20032;-62
2023/03/17 02:55:18;;;;;;;7.32;3.55;;;8.00;99.90;;;;;;5053259;28;20393;-62
2023/03/17 02:57:44;;;;;;;7.45;3.50;;;8.00;99.90;;;;;;5052971;28;20553;-62
2023/03/17 03:00:10;;;;;;;6.50;3.85;;;7.90;99.90;;;;;;5034758;28;20187;-62
2023/03/17 03:02:37;;;;;;;6.88;2.95;;;8.00;99.90;;;;;;5019438;28;20174;-62
2023/03/17 03:05:04;;;;;;;6.82;3.80;;;8.00;99.90;;;;;;5034641;28;20094;-62
2023/03/17 03:07:31;;;;;;;6.03;3.30;;;7.90;99.90;;;;;;5035900;28;20128;-62
2023/03/17 03:09:57;;;;;;;8.63;3.40;;;7.90;99.90;;;;;;5053474;28;20036;-62
2023/03/17 03:12:23;;;;;;;8.18;3.42;;;7.90;99.90;;;;;;5034568;28;20087;-62
2023/03/17 03:14:49;;;;;;;8.93;3.58;;;7.90;99.90;;;;;;5035420;28;20047;-62
2023/03/17 03:17:15;;;;;;;5.38;3.00;;;7.90;99.90;;;;;;5035152;28;20476;-62
2023/03/17 03:19:41;;;;;;;7.88;3.05;;;7.90;99.90;;;;;;5034828;28;20063;-62
2023/03/17 03:22:07;;;;;;;6.20;3.03;;;7.90;99.90;;;;;;5034701;28;20033;-62
2023/03/17 03:24:33;;;;;;;6.22;3.45;;;7.90;99.90;;;;;;5052512;28;20041;-62
2023/03/17 03:26:59;;;;;;;8.38;4.25;;;7.90;99.90;;;;;;5018088;28;20041;-62
2023/03/17 03:29:24;;;;;;;7.38;3.42;;;7.80;99.90;;;;;;5034551;28;20051;-62
2023/03/17 03:31:50;;;;;;;6.30;3.10;;;7.80;99.90;;;;;;5035093;28;20082;-62
2023/03/17 03:34:16;;;;;;;7.38;3.30;;;7.80;99.90;;;;;;5052378;28;20037;-62
2023/03/17 03:36:42;;;;;;;6.22;3.38;;;7.80;99.90;;;;;;5053237;28;20509;-62
2023/03/17 03:39:08;;;;;;;7.55;3.25;;;7.80;99.90;;;;;;5033382;28;20563;-62
2023/03/17 03:41:34;;;;;;;6.80;3.85;;;7.80;99.90;;;;;;5034809;28;20045;-62
2023/03/17 03:44:00;;;;;;;7.93;3.67;;;7.80;99.90;;;;;;5035212;28;20028;-62
2023/03/17 03:46:27;;;;;;;7.03;3.65;;;7.80;99.90;;;;;;5034155;28;20045;-62
2023/03/17 03:48:53;;;;;;;6.57;3.67;;;7.80;99.90;;;;;;5035047;28;20500;-62
2023/03/17 03:51:19;;;;;;;6.90;2.83;;;7.80;99.90;;;;;;5034665;28;20051;-62
2023/03/17 03:53:44;;;;;;;6.50;3.22;;;7.80;99.90;;;;;;5051999;28;20041;-62
2023/03/17 03:56:10;;;;;;;5.95;2.80;;;7.80;99.90;;;;;;5051973;28;20099;-62
2023/03/17 03:58:41;;;;;;;6.40;3.42;;;7.80;99.90;;;;;;5018106;28;20531;-62
2023/03/17 04:01:08;;;;;;;4.97;2.55;;;7.80;99.90;;;;;;5033533;28;20072;-62
2023/03/17 04:03:36;;;;;;;6.70;3.13;;;7.80;99.90;;;;;;5034842;28;20041;-62
2023/03/17 04:06:02;;;;;;;6.75;3.58;;;7.80;99.90;;;;;;5034356;28;20094;-62
2023/03/17 04:08:28;;;;;;;6.18;3.00;;;7.80;99.90;;;;;;5033558;28;20051;-62
2023/03/17 04:10:54;;;;;;;5.82;2.95;;;7.80;99.90;;;;;;5017947;28;20033;-62
2023/03/17 04:13:19;;;;;;;6.20;3.53;;;7.80;99.90;;;;;;5034012;28;20087;-62
2023/03/17 04:15:45;;;;;;;5.72;3.40;;;7.80;99.90;;;;;;5033811;28;20047;-62
2023/03/17 04:18:10;;;;;;;8.07;3.35;;;7.80;99.90;;;;;;5051818;28;20110;-62
2023/03/17 04:20:37;;;;;;;5.45;3.08;;;7.80;99.90;;;;;;5052280;28;20044;-62
2023/03/17 04:23:03;;;;;;;6.05;3.30;;;7.80;99.90;;;;;;5033420;28;20558;-62
2023/03/17 04:25:29;;;;;;;5.40;3.00;;;7.80;99.90;;;;;;5051686;28;20044;-62
2023/03/17 04:27:54;;;;;;;6.78;3.20;;;7.80;99.90;;;;;;5018133;28;20041;-62
2023/03/17 04:30:20;;;;;;;7.82;3.30;;;7.70;99.90;;;;;;5033304;28;20478;-62
2023/03/17 04:32:46;;;;;;;6.55;3.30;;;7.80;99.90;;;;;;5052268;28;20036;-62
2023/03/17 04:35:14;;;;;;;7.55;4.13;;;7.70;99.90;;;;;;5030376;28;20550;-62
2023/03/17 04:37:40;;;;;;;12.05;3.58;;;7.70;99.90;;;;;;5014431;28;20045;-63
2023/03/17 04:40:08;;;;;;;6.47;3.40;;;7.70;99.90;;;;;;4997864;28;20050;-62
2023/03/17 04:42:35;;;;;;;5.82;3.20;;;7.70;99.90;;;;;;4977906;28;20176;-62
2023/03/17 04:45:02;;;;;;;7.43;3.67;;;7.70;99.90;;;;;;4978320;28;20049;-62
2023/03/17 04:47:28;;;;;;;7.57;3.72;;;7.70;99.90;;;;;;4994347;28;20072;-62
2023/03/17 04:49:53;;;;;;;5.80;3.35;;;7.70;99.90;;;;;;5011654;28;20085;-62
2023/03/17 04:52:19;;;;;;;6.63;3.08;;;7.60;99.90;;;;;;5011833;28;20053;-62
2023/03/17 04:54:44;;;;;;;6.28;3.72;;;7.60;99.90;;;;;;4994666;28;20042;-62
2023/03/17 04:57:11;;;;;;;7.35;4.18;;;7.50;99.90;;;;;;5011141;28;20037;-62
2023/03/17 04:59:36;;;;;;;7.53;3.85;;;7.50;99.90;;;;;;4994770;28;20049;-62
2023/03/17 05:02:02;;;;;;;7.38;3.75;;;7.50;99.90;;;;;;4994720;28;20030;-62
2023/03/17 05:04:28;;;;;;;6.95;3.00;;;7.50;99.90;;;;;;5011371;28;20435;-62
2023/03/17 05:06:53;;;;;;;7.70;3.53;;;7.50;99.90;;;;;;4994609;28;20120;-62
2023/03/17 05:09:19;;;;;;;6.18;3.38;;;7.40;99.90;;;;;;5011351;28;20411;-62
2023/03/17 05:11:45;;;;;;;6.00;3.40;;;7.40;99.90;;;;;;5003269;28;20057;-62
2023/03/17 05:14:11;;;;;;;6.32;3.63;;;7.40;99.90;;;;;;5013832;28;20057;-62
2023/03/17 05:16:37;;;;;;;5.53;3.15;;;7.40;99.90;;;;;;5014170;28;20490;-62
2023/03/17 05:19:02;;;;;;;7.05;3.30;;;7.40;99.90;;;;;;4996712;28;20213;-62
2023/03/17 05:21:28;;;;;;;7.45;3.63;;;7.40;99.90;;;;;;5013787;28;20080;-62
2023/03/17 05:23:54;;;;;;;5.70;3.35;;;7.40;99.90;;;;;;5013966;28;20037;-62
2023/03/17 05:26:20;;;;;;;6.88;3.38;;;7.40;99.90;;;;;;5012367;28;20037;-62
2023/03/17 05:28:47;;;;;;;6.70;3.20;;;7.50;99.90;;;;;;5031644;28;20045;-62
2023/03/17 05:31:12;;;;;;;6.03;2.90;;;7.50;99.90;;;;;;5031280;28;20049;-62
2023/03/17 05:33:38;;;;;;;6.82;2.97;;;7.50;99.90;;;;;;5012909;28;20037;-62
2023/03/17 05:36:04;;;;;;;6.47;3.25;;;7.50;99.90;;;;;;5013782;28;20111;-62
2023/03/17 05:38:30;;;;;;;6.15;3.17;;;7.50;99.90;;;;;;5033052;28;20038;-62
2023/03/17 05:40:56;;;;;;;6.82;3.22;;;7.50;99.90;;;;;;5033703;28;20049;-62
2023/03/17 05:43:22;;;;;;;9.15;4.18;;;7.50;99.90;;;;;;5033119;28;20120;-62
2023/03/17 05:45:49;;;;;;;6.13;3.45;;;7.50;99.90;;;;;;5016466;28;20215;-62
2023/03/17 05:48:15;;;;;;;8.48;3.33;;;7.50;99.90;;;;;;5036486;28;20052;-62
2023/03/17 05:50:42;;;;;;;7.30;3.33;;;7.60;99.90;;;;;;5055127;28;20041;-62
2023/03/17 05:53:09;;;;;;;8.48;3.63;;;7.60;99.90;;;;;;5035726;28;20041;-62
2023/03/17 05:55:35;;;;;;;7.45;3.85;;;7.60;99.90;;;;;;5054819;28;20064;-62
2023/03/17 05:58:03;;;;;;;9.93;3.40;;;7.60;99.90;;;;;;5020317;28;20036;-62
2023/03/17 06:00:29;;;;;;;7.57;3.67;;;7.60;99.90;;;;;;5019444;28;20037;-62
2023/03/17 06:02:55;;;;;;;6.65;3.88;;;7.70;99.90;;;;;;5036740;28;20049;-62
2023/03/17 06:05:21;;;;;;;7.43;3.65;;;7.60;99.90;;;;;;5036114;28;20045;-62
2023/03/17 06:07:47;;;;;;;7.47;3.33;;;7.70;99.90;;;;;;5053850;28;20080;-62
2023/03/17 06:10:12;;;;;;;7.85;3.55;;;7.60;99.90;;;;;;5053929;28;20072;-62
2023/03/17 06:12:38;;;;;;;6.22;3.55;;;7.60;99.90;;;;;;5036865;28;20124;-62
2023/03/17 06:15:05;;;;;;;6.88;3.45;;;7.60;99.90;;;;;;5053400;28;20037;-62
2023/03/17 06:17:30;;;;;;;6.65;3.72;;;7.70;99.90;;;;;;5036721;28;20508;-62
2023/03/17 06:19:56;;;;;;;6.25;3.65;;;7.70;99.90;;;;;;5036575;28;20041;-62
2023/03/17 06:22:22;;;;;;;6.43;3.72;;;7.70;99.90;;;;;;5052947;28;20041;-62
2023/03/17 06:24:47;;;;;;;6.60;3.53;;;7.70;99.90;;;;;;5054398;28;20045;-62
2023/03/17 06:27:13;;;;;;;6.97;3.65;;;7.70;99.90;;;;;;5053719;28;20045;-62
2023/03/17 06:29:39;;;;;;;7.57;3.42;;;7.70;99.90;;;;;;5035990;28;20040;-62
2023/03/17 06:32:05;;;;;;;7.80;3.60;;;7.70;99.90;;;;;;5018945;28;20037;-62
2023/03/17 06:34:31;;;;;;;7.65;4.63;;;7.80;99.90;;;;;;5019532;28;20443;-62
2023/03/17 06:36:57;;;;;;;7.78;3.38;;;7.80;99.90;;;;;;5035343;28;20084;-62
2023/03/17 06:39:23;;;;;;;6.32;3.42;;;7.80;99.90;;;;;;5035248;28;20057;-62
2023/03/17 06:41:49;;;;;;;7.63;3.40;;;7.80;99.90;;;;;;5053185;28;20040;-62
2023/03/17 06:44:15;;;;;;;7.57;3.75;;;7.80;99.90;;;;;;5035600;28;20037;-62
2023/03/17 06:46:41;;;;;;;6.40;3.25;;;7.90;99.90;;;;;;5019700;28;20154;-62
2023/03/17 06:49:07;;;;;;;5.97;3.28;;;7.80;99.90;;;;;;5048855;28;20044;-62
2023/03/17 06:51:35;;;;;;;7.30;3.35;;;7.90;99.90;;;;;;5035973;28;20045;-62
2023/03/17 06:54:00;;;;;;;6.47;4.07;;;7.80;99.90;;;;;;5036707;28;20040;-62
2023/03/17 06:56:26;;;;;;;7.45;3.30;;;7.90;99.90;;;;;;5035011;28;20541;-62
2023/03/17 06:58:52;;;;;;;6.20;3.67;;;7.90;99.90;;;;;;5031345;28;20033;-62
2023/03/17 07:01:18;;;;;;;6.25;3.17;;;7.90;99.90;;;;;;5023431;28;20038;-62
2023/03/17 07:03:44;;;;;;;7.88;4.47;;;7.90;99.90;;;;;;5049841;28;20055;-62
2023/03/17 07:06:10;;;;;;;6.57;3.10;;;8.00;99.90;;;;;;5025493;28;20033;-62
2023/03/17 07:08:35;;;;;;;7.10;3.50;;;8.00;99.90;;;;;;5015395;28;20041;-62
2023/03/17 07:11:03;;;;;;;6.10;3.20;;;8.10;99.90;;;;;;5040348;28;20045;-62
2023/03/17 07:13:33;;;;;;;5.57;3.20;;;8.10;99.90;;;;;;5013507;28;20211;-62
2023/03/17 07:16:01;;;;;;;5.43;2.97;;;8.10;99.90;;;;;;5031354;28;20692;-62
2023/03/17 07:18:30;;;;;;;5.70;3.00;;;8.10;99.90;;;;;;5026344;28;20037;-62
2023/03/17 07:20:57;;;;;;;8.05;3.47;;;8.10;99.90;;;;;;5014938;28;20120;-62
2023/03/17 07:23:23;;;;;;;6.75;3.33;;;8.20;99.90;;;;;;5050464;28;20119;-62
2023/03/17 07:25:50;;;;;;;6.95;3.70;;;8.20;99.90;;;;;;5032444;28;20462;-63
2023/03/17 07:28:16;;;;;;;5.53;2.85;;;8.20;99.90;;;;;;5032469;28;20045;-62
2023/03/17 07:30:45;;;;;;;8.88;3.30;;;8.30;99.90;;;;;;5016317;28;20044;-62
2023/03/17 07:33:16;;;;;;;5.43;2.78;;;8.40;99.90;;;;;;5035251;28;20041;-62
2023/03/17 07:35:42;;;;;;;9.13;4.30;;;8.40;99.90;;;;;;5048468;28;20048;-62
2023/03/17 07:38:08;;;;;;;6.05;3.20;;;8.50;99.90;;;;;;5031769;28;20094;-62
2023/03/17 07:40:35;;;;;;;6.93;3.42;;;8.60;99.90;;;;;;5016295;28;20103;-62
2023/03/17 07:43:00;;;;;;;8.75;3.42;;;8.70;99.90;;;;;;5050669;28;20398;-63
2023/03/17 07:45:26;;;;;;;6.82;3.50;;;8.80;99.90;;;;;;5049792;28;20041;-62
2023/03/17 07:47:52;;;;;;;6.72;3.63;;;8.80;99.90;;;;;;5005585;28;20038;-62
2023/03/17 07:50:19;;;;;;;6.78;3.55;;;9.00;99.90;;;;;;4996108;28;20049;-62
2023/03/17 07:52:45;;;;;;;4.95;2.75;;;9.00;99.90;;;;;;5011094;28;20069;-62
2023/03/17 07:55:11;;;;;;;8.38;3.63;;;9.10;99.90;;;;;;5029722;28;20092;-62
2023/03/17 07:57:38;;;;;;;7.05;3.33;;;9.10;99.90;;;;;;5013263;28;20049;-62
2023/03/17 08:00:09;;;;;;;9.50;3.60;;;9.20;99.90;;;;;;5013295;28;20057;-62
2023/03/17 08:02:35;;;;;;;5.82;3.35;;;9.30;99.90;;;;;;5027205;28;20136;-61
2023/03/17 08:05:02;;;;;;;8.60;3.35;;;9.30;99.90;;;;;;5038611;28;20124;-62
2023/03/17 08:07:28;;;;;;;7.15;3.65;;;9.30;99.90;;;;;;5010107;28;20144;-62
2023/03/17 08:09:53;;;;;;;7.32;3.70;;;9.30;99.90;;;;;;4999338;28;20459;-62
2023/03/17 08:12:19;;;;;;;6.65;3.00;;;9.40;99.90;;;;;;5028394;28;20047;-62
2023/03/17 08:14:45;;;;;;;6.20;3.58;;;9.40;99.90;;;;;;5020142;28;20079;-63
2023/03/17 08:17:11;;;;;;;7.63;3.25;;;9.40;99.90;;;;;;5047736;28;20039;-63
2023/03/17 08:19:36;;;;;;;6.38;3.53;;;9.40;99.90;;;;;;5049723;28;20065;-62
2023/03/17 08:22:02;;;;;;;5.82;3.22;;;9.50;99.90;;;;;;5013420;28;20029;-62
2023/03/17 08:24:28;;;;;;;6.97;3.33;;;9.50;99.90;;;;;;5027174;28;20086;-62
2023/03/17 08:26:54;;;;;;;8.00;3.35;;;9.50;99.90;;;;;;5016413;28;20037;-63
2023/03/17 08:29:19;;;;;;;7.57;4.18;;;9.60;99.90;;;;;;5022836;28;20115;-63
2023/03/17 08:31:45;;;;;;;6.43;3.10;;;9.60;99.90;;;;;;5023503;28;20045;-62
2023/03/17 08:34:11;;;;;;;6.63;3.70;;;9.60;99.90;;;;;;5011987;28;20045;-62
2023/03/17 08:36:37;;;;;;;6.07;3.25;;;9.70;99.90;;;;;;5020742;28;20099;-63
2023/03/17 08:39:03;;;;;;;7.25;3.38;;;9.70;99.90;;;;;;5021013;28;20506;-62
2023/03/17 08:41:29;;;;;;;7.63;4.05;;;9.80;99.90;;;;;;5033753;28;20150;-62
2023/03/17 08:43:57;;;;;;;7.43;3.90;;;9.80;99.90;;;;;;5017535;28;20037;-62
2023/03/17 08:46:25;;;;;;;7.88;3.47;;;9.80;99.90;;;;;;5038174;28;20090;-62
2023/03/17 08:48:53;;;;;;;7.80;4.15;;;9.90;99.90;;;;;;5031076;28;20112;-62
2023/03/17 08:51:19;;;;;;;7.88;4.03;;;10.00;99.90;;;;;;5036548;28;20049;-62
2023/03/17 08:53:45;;;;;;;7.45;3.80;;;10.00;99.90;;;;;;5019446;28;20065;-63
2023/03/17 08:56:13;;;;;;;10.30;4.63;;;10.20;99.90;;;;;;5029405;28;20052;-63
2023/03/17 08:58:39;;;;;;;6.93;4.03;;;10.30;99.90;;;;;;5011619;28;20045;-62
2023/03/17 09:01:05;;;;;;;6.22;3.72;;;10.30;99.90;;;;;;5012561;28;20041;-62
2023/03/17 09:03:32;;;;;;;8.00;4.55;;;10.40;99.90;;;;;;5016913;28;20081;-63
2023/03/17 09:05:58;;;;;;;9.55;4.35;;;10.60;99.90;;;;;;5005473;28;20068;-63
2023/03/17 09:08:25;;;;;;;8.68;4.72;;;10.70;99.90;;;;;;5030440;28;20049;-62
2023/03/17 09:10:52;;;;;;;6.90;3.85;;;10.80;99.90;;;;;;5028182;28;20064;-63
2023/03/17 09:13:17;;;;;;;9.00;4.13;;;10.80;99.90;;;;;;5017313;28;20048;-63
2023/03/17 09:15:44;;;;;;;8.63;4.78;;;10.90;99.90;;;;;;5016742;28;20040;-62
2023/03/17 09:18:10;;;;;;;10.77;5.32;;;10.90;99.90;;;;;;4994953;28;20079;-62
2023/03/17 09:20:36;;;;;;;9.88;6.38;;;11.00;99.90;;;;;;4995403;28;20077;-63
2023/03/17 09:23:06;;;;;;;9.30;4.88;;;11.10;99.90;;;;;;5014563;28;20048;-62
2023/03/17 09:25:36;;;;;;;12.13;6.07;;;11.20;99.90;;;;;;5014706;28;20494;-62
2023/03/17 09:28:03;;;;;;;10.70;6.30;;;11.40;99.90;;;;;;4998575;28;20091;-62
2023/03/17 09:30:29;;;;;;;9.05;6.18;;;11.60;99.90;;;;;;5017040;28;20041;-62
2023/03/17 09:32:54;;;;;;;10.88;5.70;;;11.60;99.90;;;;;;5003415;28;20041;-62
2023/03/17 09:35:21;;;;;;;11.25;6.32;;;11.70;99.90;;;;;;5015574;28;20107;-62
2023/03/17 09:37:48;;;;;;;11.73;5.85;;;11.90;99.90;;;;;;5014680;28;20670;-62
2023/03/17 09:40:17;;;;;;;8.38;5.22;;;12.00;99.90;;;;;;5013216;28;20501;-62
2023/03/17 09:42:55;;;;;;;8.95;4.45;;;12.00;99.90;;;;;;5032337;28;20518;-62
2023/03/17 09:45:37;;;;;;;7.78;4.05;;;12.10;99.90;;;;;;4999993;28;20130;-62
2023/03/17 09:48:08;;;;;;;6.90;3.95;;;12.20;99.90;;;;;;5036447;28;20036;-62
2023/03/17 09:50:46;;;;;;;7.60;4.07;;;12.30;99.90;;;;;;5032403;28;20412;-62
2023/03/17 09:53:50;;;;;;;7.90;4.43;;;12.40;99.90;;;;;;5052052;28;20049;-62
2023/03/17 09:56:18;;;;;;;7.85;3.97;;;12.50;99.90;;;;;;5025013;28;20044;-62
2023/03/17 09:59:22;;;;;;;8.95;4.47;;;12.70;99.90;;;;;;5027166;28;20129;-61
2023/03/17 10:01:49;;;;;;;7.72;4.78;;;12.90;99.90;;;;;;5026905;28;20045;-61
2023/03/17 10:04:17;;;;;;;9.80;5.00;;;12.90;99.90;;;;;;5044990;28;20398;-62
2023/03/17 10:06:45;;;;;;;7.70;4.40;;;13.00;99.90;;;;;;5017386;28;20052;-61
2023/03/17 10:09:16;;;;;;;10.13;4.20;;;13.10;99.90;;;;;;5044404;28;20048;-62
2023/03/17 10:11:45;;;;;;;7.00;3.60;;;13.10;99.90;;;;;;5034924;28;20379;-62
2023/03/17 10:14:53;;;;;;;7.05;4.28;;;13.20;99.90;;;;;;5031806;28;20073;-62
2023/03/17 10:17:27;;;;;;;10.68;5.03;;;13.30;99.90;;;;;;5006374;28;20050;-62
2023/03/17 10:19:58;;;;;;;8.50;4.53;;;13.30;99.90;;;;;;5033963;28;20073;-61
2023/03/17 10:22:45;;;;;;;9.57;4.93;;;13.40;99.90;;;;;;5016444;28;20041;-62
2023/03/17 10:25:20;;;;;;;7.95;3.78;;;13.40;99.90;;;;;;5033057;28;20462;-62
2023/03/17 10:28:07;;;;;;;6.53;3.50;;;13.50;99.90;;;;;;5033582;28;20489;-61
2023/03/17 10:30:34;;;;;;;6.70;4.30;;;13.50;99.90;;;;;;5033114;28;20490;-61
2023/03/17 10:33:03;;;;;;;10.52;4.18;;;13.50;99.90;;;;;;5033140;28;20046;-62
2023/03/17 10:35:34;;;;;;;7.53;4.75;;;13.60;99.90;;;;;;5033275;28;20474;-61
2023/03/17 10:38:12;;;;;;;9.80;4.60;;;13.70;99.90;;;;;;5033095;28;20048;-61
2023/03/17 10:40:38;;;;;;;8.52;4.25;;;13.70;99.90;;;;;;5034072;28;20042;-62
2023/03/17 10:43:10;;;;;;;9.70;4.75;;;13.80;99.90;;;;;;5015311;28;20034;-62
2023/03/17 10:45:39;;;;;;;8.02;4.53;;;13.90;99.90;;;;;;5034538;28;20224;-62
2023/03/17 10:48:09;;;;;;;8.35;4.50;;;13.90;99.90;;;;;;5032819;28;20092;-62
2023/03/17 10:50:38;;;;;;;9.85;4.60;;;13.90;99.90;;;;;;5034265;28;20384;-61
2023/03/17 10:53:18;;;;;;;9.00;4.80;;;14.00;99.90;;;;;;5032501;28;20041;-62
2023/03/17 10:55:50;;;;;;;8.93;4.60;;;14.00;99.90;;;;;;5033076;28;20120;-62
2023/03/17 10:58:27;;;;;;;9.10;4.65;;;14.10;99.90;;;;;;5015715;28;20045;-61
2023/03/17 11:01:14;;;;;;;9.38;4.97;;;14.20;99.90;;;;;;5032648;28;20045;-61
2023/03/17 11:03:40;;;;;;;7.40;4.80;;;14.30;99.90;;;;;;5031758;28;20073;-61
2023/03/17 11:06:15;;;;;;;10.80;5.47;;;14.40;99.90;;;;;;5031843;28;20143;-62
2023/03/17 11:08:48;;;;;;;9.45;5.25;;;14.40;99.90;;;;;;5032519;28;20552;-61
2023/03/17 11:11:26;;;;;;;9.68;6.22;;;14.50;99.90;;;;;;5031319;28;20048;-61
2023/03/17 11:14:03;;;;;;;9.30;5.80;;;14.50;99.90;;;;;;5032265;28;20052;-62
2023/03/17 11:16:36;;;;;;;9.23;5.93;;;14.50;99.90;;;;;;5031483;28;20045;-61
2023/03/17 11:19:04;;;;;;;8.27;5.00;;;14.50;99.90;;;;;;5033387;28;20045;-62
2023/03/17 11:21:53;;;;;;;8.48;5.10;;;14.50;99.90;;;;;;5033658;28;20120;-61
2023/03/17 11:24:40;;;;;;;8.75;5.60;;;14.60;99.90;;;;;;5030955;28;20080;-61
2023/03/17 11:27:34;;;;;;;8.82;5.45;;;14.60;99.90;;;;;;5015302;28;20052;-62
2023/03/17 11:30:15;;;;;;;9.43;5.35;;;14.60;99.90;;;;;;5033372;28;20575;-61
2023/03/17 11:32:53;;;;;;;9.02;5.65;;;14.70;99.90;;;;;;5032056;28;20379;-61
2023/03/17 11:35:40;;;;;;;8.75;5.18;;;14.70;99.90;;;;;;5031425;28;20052;-61
2023/03/17 11:38:16;;;;;;;9.13;5.78;;;14.80;99.90;;;;;;5032033;28;20049;-62
2023/03/17 11:41:10;;;;;;;9.88;5.93;;;14.80;99.90;;;;;;5015354;28;20049;-61
2023/03/17 11:43:58;;;;;;;7.80;5.82;;;14.80;99.90;;;;;;5017632;28;20069;-62
2023/03/17 11:46:35;;;;;;;9.55;6.30;;;14.80;99.90;;;;;;5031863;28;20037;-62
2023/03/17 11:49:23;;;;;;;9.65;5.32;;;14.90;99.90;;;;;;5031944;28;20397;-62
2023/03/17 11:51:52;;;;;;;9.10;5.57;;;14.90;99.90;;;;;;5030860;28;20098;-61
2023/03/17 11:54:24;;;;;;;7.70;5.45;;;14.90;99.90;;;;;;5014541;28;20053;-61
2023/03/17 11:56:53;;;;;;;8.10;5.30;;;14.90;99.90;;;;;;5032844;28;20085;-62
2023/03/17 11:59:35;;;;;;;10.38;5.47;;;15.00;99.90;;;;;;5030198;28;20188;-61
2023/03/17 12:02:10;;;;;;;9.48;6.05;;;15.00;99.90;;;;;;5031762;28;20045;-61
2023/03/17 12:04:42;;;;;;;10.55;5.72;;;15.00;99.90;;;;;;5031466;28;20037;-62
2023/03/17 12:07:25;;;;;;;9.18;5.85;;;15.00;99.90;;;;;;5030113;28;20041;-62
2023/03/17 12:10:07;;;;;;;7.90;5.20;;;15.00;99.90;;;;;;5031514;28;20065;-62
2023/03/17 12:12:45;;;;;;;10.27;5.28;;;14.90;99.90;;;;;;5030475;28;20053;-62
2023/03/17 12:15:24;;;;;;;13.70;6.35;;;15.00;99.90;;;;;;5014593;28;20041;-62
2023/03/17 12:18:22;;;;;;;8.90;5.80;;;14.90;99.90;;;;;;5032743;28;20096;-62
2023/03/17 12:20:57;;;;;;;10.25;6.10;;;15.00;99.90;;;;;;4962750;28;20092;-62
2023/03/17 12:23:50;;;;;;;10.40;6.38;;;15.00;99.90;;;;;;5030795;28;20068;-62
2023/03/17 12:27:00;;;;;;;11.65;6.47;;;15.10;99.90;;;;;;5031744;28;20497;-62
2023/03/17 12:29:52;;;;;;;10.25;6.22;;;15.10;99.90;;;;;;5006708;28;20502;-61
2023/03/17 12:32:23;;;;;;;9.82;6.05;;;15.00;99.90;;;;;;5031896;28;20042;-61
2023/03/17 12:34:57;;;;;;;9.15;6.32;;;14.90;99.90;;;;;;5031652;28;20394;-62
2023/03/17 12:37:26;;;;;;;10.38;6.13;;;14.90;99.90;;;;;;5031729;28;20390;-61
2023/03/17 12:40:17;;;;;;;13.10;6.15;;;14.90;99.90;;;;;;5030743;28;20053;-61
2023/03/17 12:43:14;;;;;;;8.88;5.53;;;14.90;99.90;;;;;;5014156;28;20045;-61
2023/03/17 12:45:51;;;;;;;9.95;6.05;;;14.90;99.90;;;;;;5030897;28;20509;-62
2023/03/17 12:48:33;;;;;;;11.35;6.63;;;14.90;99.90;;;;;;5030618;28;20124;-62
2023/03/17 12:51:05;;;;;;;9.25;5.70;;;15.10;99.90;;;;;;5030930;28;20395;-62
2023/03/17 12:53:43;;;;;;;9.43;6.65;;;15.00;99.90;;;;;;5030746;28;20124;-61
2023/03/17 12:56:24;;;;;;;13.40;7.03;;;14.90;99.90;;;;;;5031708;28;20052;-61
2023/03/17 12:58:53;;;;;;;11.77;6.32;;;14.70;99.90;;;;;;5034701;28;20041;-62
2023/03/17 13:01:32;;;;;;;10.93;6.80;;;14.50;99.90;;;;;;5034247;28;20485;-62
2023/03/17 13:04:03;;;;;;;13.88;6.13;;;14.40;99.90;;;;;;5036002;28;20056;-62
2023/03/17 13:06:33;;;;;;;11.82;7.10;;;14.30;99.90;;;;;;5035689;28;20037;-61